Time;durP1;ratioP1;P1;durP2;ratioP2;P2;SDS_P1;SDS_P2;PMS_P1;PMS_P2;Temp;Humidity;BMP_temperature;BMP_pressure;BME280_temperature;BME280_humidity;BME280_pressure;Samples;Min_cycle;Max_cycle;Signal;HPM_P1;HPM_P2
2023/11/10 00:00:01;;;;;;;28.42;26.63;;;;;;;0.07;100.00;101608.22;4997778;28;20057;-71
2023/11/10 00:02:27;;;;;;;25.48;24.08;;;;;;;0.37;100.00;101609.44;4993606;28;20046;-72
2023/11/10 00:04:57;;;;;;;33.25;31.30;;;;;;;0.44;100.00;101611.44;4996628;28;20093;-72
2023/11/10 00:07:25;;;;;;;26.20;24.70;;;;;;;0.30;100.00;101603.00;5003154;28;20050;-72
2023/11/10 00:09:52;;;;;;;28.45;26.73;;;;;;;0.18;100.00;101604.78;4992038;28;20050;-71
2023/11/10 00:12:19;;;;;;;26.08;24.58;;;;;;;0.04;100.00;101618.88;4986375;28;20137;-73
2023/11/10 00:14:46;;;;;;;24.23;22.92;;;;;;;0.18;100.00;101613.47;4986510;28;20058;-72
2023/11/10 00:17:13;;;;;;;27.83;26.50;;;;;;;0.39;100.00;101610.13;4997348;28;20058;-72
2023/11/10 00:19:42;;;;;;;23.63;22.42;;;;;;;0.26;100.00;101612.88;4996186;28;20458;-72
2023/11/10 00:22:10;;;;;;;24.40;23.02;;;;;;;0.30;100.00;101616.91;4994701;28;20050;-72
2023/11/10 00:24:40;;;;;;;25.60;24.20;;;;;;;0.34;100.00;101594.81;4996820;28;20050;-72
2023/11/10 00:27:08;;;;;;;28.58;26.98;;;;;;;0.03;100.00;101598.09;4993065;28;20039;-72
2023/11/10 00:29:35;;;;;;;28.45;26.60;;;;;;;-0.17;100.00;101594.38;4991639;28;20427;-72
2023/11/10 00:32:02;;;;;;;24.92;23.42;;;;;;;0.04;100.00;101595.38;4997453;28;20493;-72
2023/11/10 00:34:29;;;;;;;23.77;22.48;;;;;;;0.05;100.00;101602.25;4992584;28;20046;-72
2023/11/10 00:36:56;;;;;;;26.50;24.77;;;;;;;-0.04;100.00;101606.41;4995086;28;20053;-72
2023/11/10 00:39:22;;;;;;;24.17;22.77;;;;;;;0.24;100.00;101599.06;4997629;28;20080;-71
2023/11/10 00:41:51;;;;;;;27.05;25.65;;;;;;;0.19;100.00;101593.38;4996626;28;20555;-72
2023/11/10 00:44:18;;;;;;;28.90;27.30;;;;;;;0.13;100.00;101592.06;4995743;28;20058;-73
2023/11/10 00:46:45;;;;;;;28.13;26.52;;;;;;;0.03;100.00;101587.66;4997100;28;20073;-73
2023/11/10 00:49:15;;;;;;;27.80;26.13;;;;;;;0.06;100.00;101595.25;4989487;28;20053;-72
2023/11/10 00:51:42;;;;;;;29.15;27.55;;;;;;;0.11;100.00;101591.34;4993522;28;20050;-73
2023/11/10 00:54:08;;;;;;;26.20;24.80;;;;;;;0.19;100.00;101581.16;4996574;28;20061;-72
2023/11/10 00:56:36;;;;;;;31.73;30.02;;;;;;;0.12;100.00;101579.09;4990801;28;20053;-72
2023/11/10 00:59:05;;;;;;;30.67;28.98;;;;;;;0.00;100.00;101570.44;4984182;28;20144;-72
2023/11/10 01:01:35;;;;;;;30.50;28.88;;;;;;;-0.24;100.00;101568.72;4994577;28;20050;-72
2023/11/10 01:04:03;;;;;;;28.65;27.05;;;;;;;-0.30;100.00;101556.13;4988612;28;20177;-72
2023/11/10 01:06:30;;;;;;;28.25;26.65;;;;;;;-0.31;100.00;101559.66;4999392;28;20426;-72
2023/11/10 01:08:58;;;;;;;27.52;25.92;;;;;;;-0.21;100.00;101558.97;4997765;28;21179;-72
2023/11/10 01:11:28;;;;;;;29.30;27.70;;;;;;;-0.10;100.00;101557.22;5000169;28;20074;-72
2023/11/10 01:13:55;;;;;;;31.33;29.63;;;;;;;0.22;100.00;101560.00;5001257;28;20078;-72
2023/11/10 01:16:23;;;;;;;32.28;30.50;;;;;;;0.16;100.00;101559.66;4997380;28;20436;-72
2023/11/10 01:18:50;;;;;;;30.50;28.90;;;;;;;-0.09;100.00;101551.09;4999093;28;20137;-72
2023/11/10 01:21:18;;;;;;;30.17;28.45;;;;;;;-0.02;100.00;101546.22;5000834;28;20491;-72
2023/11/10 01:23:45;;;;;;;31.20;29.50;;;;;;;0.09;100.00;101551.47;4997707;28;20515;-72
2023/11/10 01:26:13;;;;;;;27.80;26.40;;;;;;;-0.18;100.00;101545.69;4999387;28;20361;-72
2023/11/10 01:28:39;;;;;;;32.13;30.42;;;;;;;-0.28;100.00;101538.56;4998784;28;20062;-72
2023/11/10 01:31:06;;;;;;;25.40;24.10;;;;;;;-0.30;100.00;101535.25;4994056;28;20065;-72
2023/11/10 01:33:35;;;;;;;24.30;23.08;;;;;;;-0.09;100.00;101538.03;4993066;28;20073;-72
2023/11/10 01:36:02;;;;;;;29.58;28.08;;;;;;;0.03;100.00;101540.63;4994946;28;20050;-72
2023/11/10 01:38:29;;;;;;;29.38;27.88;;;;;;;0.15;100.00;101540.53;5001882;28;20060;-72
2023/11/10 01:40:56;;;;;;;27.75;26.25;;;;;;;-0.34;100.00;101535.59;4995382;28;20073;-72
2023/11/10 01:43:23;;;;;;;28.65;27.13;;;;;;;-0.56;100.00;101533.75;4995411;28;20137;-72
2023/11/10 01:45:51;;;;;;;24.60;23.30;;;;;;;-0.58;100.00;101541.66;5003288;28;20054;-72
2023/11/10 01:48:19;;;;;;;25.27;23.88;;;;;;;-0.25;100.00;101538.31;4999234;28;20050;-72
2023/11/10 01:50:47;;;;;;;28.17;26.67;;;;;;;-0.14;100.00;101541.94;4996683;28;20049;-72
2023/11/10 01:53:15;;;;;;;27.73;26.23;;;;;;;-0.10;100.00;101543.34;4986327;28;20053;-73
2023/11/10 01:55:43;;;;;;;25.05;23.60;;;;;;;-0.15;100.00;101537.63;4998305;28;20053;-72
2023/11/10 01:58:12;;;;;;;25.20;23.80;;;;;;;-0.45;100.00;101533.78;4997081;28;20054;-72
2023/11/10 02:00:40;;;;;;;28.27;26.67;;;;;;;-0.46;100.00;101534.72;4995025;28;20125;-73
2023/11/10 02:03:08;;;;;;;28.90;27.20;;;;;;;-0.85;100.00;101534.09;4995909;28;20050;-72
2023/11/10 02:05:35;;;;;;;25.55;24.05;;;;;;;-0.55;100.00;101532.78;4993500;28;20052;-72
2023/11/10 02:08:04;;;;;;;26.15;24.65;;;;;;;-0.26;100.00;101535.84;4993626;28;20464;-72
2023/11/10 02:10:31;;;;;;;24.08;22.77;;;;;;;-0.22;100.00;101534.66;4994905;28;20581;-72
2023/11/10 02:13:00;;;;;;;28.35;26.77;;;;;;;-0.21;100.00;101536.34;4995845;28;20514;-73
2023/11/10 02:15:27;;;;;;;31.50;29.70;;;;;;;-0.25;100.00;101527.88;4995982;28;20061;-73
2023/11/10 02:17:55;;;;;;;32.97;30.52;;;;;;;-0.27;100.00;101527.19;4995124;28;20046;-72
2023/11/10 02:20:22;;;;;;;31.13;29.33;;;;;;;-0.58;100.00;101528.63;4997907;28;20046;-72
2023/11/10 02:22:50;;;;;;;27.63;26.02;;;;;;;-0.65;100.00;101524.00;4996753;28;20050;-72
2023/11/10 02:25:19;;;;;;;27.58;25.77;;;;;;;-0.39;100.00;101522.88;4998307;28;20050;-72
2023/11/10 02:27:47;;;;;;;26.20;24.63;;;;;;;-0.20;100.00;101526.72;4999902;28;20053;-72
2023/11/10 02:30:15;;;;;;;29.10;27.50;;;;;;;-0.30;100.00;101518.75;4995109;28;20050;-72
2023/11/10 02:32:43;;;;;;;36.10;34.00;;;;;;;-0.34;100.00;101514.69;4994722;28;20137;-72
2023/11/10 02:35:10;;;;;;;35.03;32.70;;;;;;;-0.26;100.00;101505.34;5001562;28;20053;-72
2023/11/10 02:37:37;;;;;;;29.80;28.10;;;;;;;-1.02;100.00;101513.63;4994504;28;20080;-72
2023/11/10 02:40:06;;;;;;;24.17;22.77;;;;;;;-0.80;100.00;101503.28;4991437;28;20042;-72
2023/11/10 02:42:35;;;;;;;29.60;28.00;;;;;;;-0.39;100.00;101506.38;5000420;28;20059;-72
2023/11/10 02:45:02;;;;;;;31.42;29.63;;;;;;;-0.43;100.00;101507.56;4995656;28;20042;-72
2023/11/10 02:47:29;;;;;;;30.80;28.90;;;;;;;-0.38;100.00;101500.22;4996786;28;20046;-72
2023/11/10 02:49:55;;;;;;;24.50;23.10;;;;;;;-0.40;100.00;101496.88;4999444;28;20065;-72
2023/11/10 02:52:22;;;;;;;26.90;25.40;;;;;;;-0.67;100.00;101495.38;4995878;28;20053;-73
2023/11/10 02:54:49;;;;;;;26.92;25.42;;;;;;;-0.54;100.00;101493.53;4999809;28;20058;-73
2023/11/10 02:57:16;;;;;;;32.42;30.73;;;;;;;-0.57;100.00;101492.94;4996399;28;20435;-73
2023/11/10 02:59:44;;;;;;;27.85;26.45;;;;;;;-0.56;100.00;101497.22;4999545;28;20054;-72
2023/11/10 03:02:14;;;;;;;29.67;28.17;;;;;;;-0.80;100.00;101492.84;5000399;28;20049;-72
2023/11/10 03:04:41;;;;;;;29.15;27.55;;;;;;;-0.60;100.00;101494.00;4993240;28;20101;-72
2023/11/10 03:07:09;;;;;;;30.55;29.00;;;;;;;-0.38;100.00;101497.63;4995401;28;20511;-72
2023/11/10 03:09:39;;;;;;;29.50;28.10;;;;;;;-0.48;100.00;101502.69;4999337;28;20533;-73
2023/11/10 03:12:08;;;;;;;29.10;27.50;;;;;;;-0.43;100.00;101497.94;5002240;28;20101;-72
2023/11/10 03:14:35;;;;;;;27.83;26.42;;;;;;;-0.29;100.00;101502.13;4997278;28;20054;-72
2023/11/10 03:17:05;;;;;;;27.02;25.25;;;;;;;-0.73;100.00;101501.06;4998768;28;20050;-72
2023/11/10 03:19:32;;;;;;;25.48;24.17;;;;;;;-0.76;100.00;101509.94;4991958;28;20439;-72
2023/11/10 03:22:00;;;;;;;28.85;27.27;;;;;;;-0.58;100.00;101499.91;4996643;28;20054;-72
2023/11/10 03:24:28;;;;;;;30.42;28.75;;;;;;;-0.29;100.00;101505.56;4998971;28;20053;-73
2023/11/10 03:26:56;;;;;;;32.78;31.08;;;;;;;-0.46;100.00;101493.78;4995062;28;20049;-72
2023/11/10 03:29:25;;;;;;;30.95;29.45;;;;;;;-0.60;100.00;101475.75;4994202;28;20081;-72
2023/11/10 03:31:51;;;;;;;26.17;24.85;;;;;;;-1.12;100.00;101478.72;4990319;28;20052;-72
2023/11/10 03:34:20;;;;;;;30.45;28.85;;;;;;;-0.89;100.00;101483.09;4993929;28;20050;-73
2023/11/10 03:36:47;;;;;;;37.17;35.42;;;;;;;-0.85;100.00;101486.31;4992777;28;20046;-72
2023/11/10 03:39:14;;;;;;;39.20;37.20;;;;;;;-0.75;100.00;101487.31;4994483;28;20053;-72
2023/11/10 03:41:41;;;;;;;32.65;30.95;;;;;;;-0.52;100.00;101488.19;4985869;28;20058;-72
2023/11/10 03:44:08;;;;;;;30.55;28.95;;;;;;;-0.64;100.00;101484.72;4996544;28;20440;-72
2023/11/10 03:46:35;;;;;;;29.88;28.17;;;;;;;-0.75;100.00;101495.16;4993909;28;20497;-72
2023/11/10 03:49:02;;;;;;;32.67;30.83;;;;;;;-0.68;100.00;101496.34;5001633;28;20141;-72
2023/11/10 03:51:30;;;;;;;32.30;30.35;;;;;;;-0.85;100.00;101494.97;4993843;28;20050;-73
2023/11/10 03:53:57;;;;;;;35.78;33.60;;;;;;;-0.86;100.00;101505.53;4993902;28;20046;-72
2023/11/10 03:56:28;;;;;;;32.13;30.27;;;;;;;-0.86;100.00;101500.31;4994530;28;20206;-72
2023/11/10 03:58:56;;;;;;;31.65;29.90;;;;;;;-0.74;100.00;101495.00;4995289;28;20446;-72
2023/11/10 04:01:24;;;;;;;30.52;28.83;;;;;;;-0.73;100.00;101498.44;4996282;28;20483;-73
2023/11/10 04:03:51;;;;;;;35.15;33.15;;;;;;;-0.79;100.00;101489.28;4994788;28;20057;-73
2023/11/10 04:06:18;;;;;;;28.50;26.90;;;;;;;-0.68;100.00;101498.13;4992975;28;20065;-72
2023/11/10 04:08:47;;;;;;;28.08;26.58;;;;;;;-0.42;100.00;101493.53;4994102;28;20058;-73
2023/11/10 04:11:14;;;;;;;30.73;29.02;;;;;;;-0.52;100.00;101491.63;4991977;28;20503;-73
2023/11/10 04:13:41;;;;;;;26.58;25.08;;;;;;;-0.50;100.00;101491.53;4993741;28;20045;-72
2023/11/10 04:16:16;;;;;;;29.75;28.05;;;;;;;-0.47;100.00;101491.31;4993631;28;20155;-72
2023/11/10 04:18:44;;;;;;;32.13;29.52;;;;;;;-0.70;100.00;101493.88;4995944;28;20045;-73
2023/11/10 04:21:11;;;;;;;33.92;31.90;;;;;;;-0.76;100.00;101488.25;4994736;28;20341;-73
2023/11/10 04:23:38;;;;;;;37.22;35.13;;;;;;;-0.76;100.00;101490.84;4994797;28;20054;-72
2023/11/10 04:26:06;;;;;;;55.42;52.53;;;;;;;-0.92;100.00;101486.75;4996908;28;20054;-73
2023/11/10 04:28:34;;;;;;;62.13;58.83;;;;;;;-0.85;100.00;101483.69;4994151;28;20046;-72
2023/11/10 04:31:01;;;;;;;38.17;35.30;;;;;;;-0.87;100.00;101476.00;4993851;28;20515;-72
2023/11/10 04:33:28;;;;;;;36.05;33.60;;;;;;;-1.35;100.00;101480.41;4994012;28;20417;-72
2023/11/10 04:35:55;;;;;;;53.28;49.53;;;;;;;-0.95;100.00;101483.56;4957060;28;20471;-72
2023/11/10 04:38:22;;;;;;;50.92;48.22;;;;;;;-0.87;100.00;101477.78;4978972;28;20420;-73
2023/11/10 04:40:51;;;;;;;53.42;50.63;;;;;;;-0.74;100.00;101474.16;4973591;28;20075;-72
2023/11/10 04:43:19;;;;;;;48.63;46.30;;;;;;;-0.58;100.00;101470.38;4977759;28;20053;-73
2023/11/10 04:45:47;;;;;;;65.18;61.85;;;;;;;-0.66;100.00;101465.75;4975602;28;20054;-72
2023/11/10 04:48:13;;;;;;;37.55;35.55;;;;;;;-0.74;100.00;101473.31;4973179;28;20043;-72
2023/11/10 04:50:40;;;;;;;40.42;38.22;;;;;;;-0.77;100.00;101463.94;4975344;28;20446;-72
2023/11/10 04:53:08;;;;;;;39.58;37.38;;;;;;;-1.52;100.00;101466.78;4978279;28;20054;-73
2023/11/10 04:55:34;;;;;;;47.30;44.90;;;;;;;-0.82;100.00;101460.81;4975372;28;20903;-72
2023/11/10 04:58:01;;;;;;;47.10;44.50;;;;;;;-0.66;100.00;101468.38;4971672;28;20523;-72
2023/11/10 05:00:36;;;;;;;53.83;50.35;;;;;;;-0.89;100.00;101453.59;4971773;28;20109;-73
2023/11/10 05:03:03;;;;;;;36.97;34.58;;;;;;;-1.39;100.00;101464.16;4977862;28;20047;-72
2023/11/10 05:05:30;;;;;;;30.63;28.92;;;;;;;-0.92;100.00;101455.47;4976083;28;20510;-73
2023/11/10 05:07:57;;;;;;;34.50;32.60;;;;;;;-0.71;100.00;101458.25;4974301;28;20050;-73
2023/11/10 05:10:24;;;;;;;37.63;35.53;;;;;;;-0.54;100.00;101464.84;4976088;28;20057;-72
2023/11/10 05:12:51;;;;;;;43.65;41.28;;;;;;;-0.60;100.00;101460.09;4978229;28;20054;-72
2023/11/10 05:15:18;;;;;;;40.50;38.08;;;;;;;-0.54;100.00;101459.63;4977007;28;20065;-73
2023/11/10 05:17:46;;;;;;;33.20;31.48;;;;;;;-0.39;100.00;101465.47;4974253;28;20082;-73
2023/11/10 05:20:16;;;;;;;32.00;30.10;;;;;;;-0.30;100.00;101462.16;4978811;28;20137;-72
2023/11/10 05:22:43;;;;;;;38.90;36.80;;;;;;;-0.22;100.00;101464.16;4982990;28;20054;-73
2023/11/10 05:25:11;;;;;;;38.75;36.40;;;;;;;-0.13;100.00;101460.00;4978897;28;20068;-73
2023/11/10 05:27:38;;;;;;;42.35;39.90;;;;;;;-0.02;100.00;101458.25;4977781;28;20412;-73
2023/11/10 05:30:07;;;;;;;42.90;40.30;;;;;;;0.15;100.00;101458.69;4975668;28;20439;-72
2023/11/10 05:32:34;;;;;;;36.92;34.85;;;;;;;0.25;100.00;101464.06;4975438;28;20047;-73
2023/11/10 05:35:02;;;;;;;37.28;35.17;;;;;;;0.26;100.00;101468.31;4977138;28;20478;-73
2023/11/10 05:37:30;;;;;;;44.28;41.88;;;;;;;0.40;100.00;101470.69;4978476;28;20088;-72
2023/11/10 05:39:57;;;;;;;42.10;39.80;;;;;;;0.35;100.00;101463.19;4970054;28;20432;-72
2023/11/10 05:42:27;;;;;;;46.10;43.60;;;;;;;0.50;100.00;101466.38;4979562;28;20048;-72
2023/11/10 05:44:54;;;;;;;40.42;38.13;;;;;;;0.62;100.00;101461.97;4980537;28;20427;-73
2023/11/10 05:47:21;;;;;;;37.35;35.15;;;;;;;0.49;100.00;101463.91;4978770;28;20051;-72
2023/11/10 05:49:48;;;;;;;38.90;36.78;;;;;;;0.40;100.00;101466.28;4970215;28;20432;-72
2023/11/10 05:52:16;;;;;;;40.17;37.80;;;;;;;0.65;100.00;101465.16;4985315;28;20065;-73
2023/11/10 05:54:43;;;;;;;37.75;35.65;;;;;;;0.77;100.00;101460.72;4976150;28;20055;-72
2023/11/10 05:57:10;;;;;;;41.67;38.92;;;;;;;0.90;100.00;101461.38;4975715;28;20046;-72
2023/11/10 05:59:38;;;;;;;38.08;35.83;;;;;;;0.74;100.00;101457.53;4973053;28;20058;-73
2023/11/10 06:02:05;;;;;;;37.42;35.15;;;;;;;1.24;100.00;101465.63;4976332;28;20054;-73
2023/11/10 06:04:32;;;;;;;43.05;40.55;;;;;;;1.53;100.00;101458.81;4972771;28;20110;-72
2023/11/10 06:06:59;;;;;;;46.63;43.90;;;;;;;1.84;100.00;101469.31;4973707;28;20500;-72
2023/11/10 06:09:27;;;;;;;26.55;24.50;;;;;;;2.32;100.00;101470.47;4979537;28;20051;-72
2023/11/10 06:11:58;;;;;;;27.17;25.25;;;;;;;2.69;100.00;101466.28;4973354;28;20051;-72
2023/11/10 06:14:25;;;;;;;27.58;25.70;;;;;;;2.66;100.00;101461.31;4975384;28;20050;-73
2023/11/10 06:16:52;;;;;;;25.50;23.65;;;;;;;2.19;100.00;101461.06;4973231;28;20055;-73
2023/11/10 06:19:19;;;;;;;28.65;26.75;;;;;;;2.44;100.00;101466.78;4976952;28;20050;-72
2023/11/10 06:21:45;;;;;;;23.98;22.48;;;;;;;1.69;100.00;101473.22;4974411;28;20065;-73
2023/11/10 06:24:12;;;;;;;25.75;24.13;;;;;;;2.68;100.00;101471.66;4974669;28;20412;-73
2023/11/10 06:26:40;;;;;;;27.83;26.02;;;;;;;2.93;100.00;101475.53;4973327;28;20633;-73
2023/11/10 06:29:07;;;;;;;29.02;27.13;;;;;;;2.88;100.00;101478.59;4980838;28;20421;-72
2023/11/10 06:31:35;;;;;;;26.15;24.38;;;;;;;3.03;100.00;101491.31;4972420;28;20046;-72
2023/11/10 06:34:01;;;;;;;26.65;24.85;;;;;;;3.16;100.00;101490.06;4978563;28;20077;-72
2023/11/10 06:36:29;;;;;;;27.77;26.02;;;;;;;3.02;100.00;101482.59;4978391;28;20050;-73
2023/11/10 06:38:55;;;;;;;26.63;24.92;;;;;;;3.11;100.00;101479.13;4978569;28;20405;-73
2023/11/10 06:41:22;;;;;;;25.92;24.25;;;;;;;1.75;100.00;101480.56;4972794;28;20062;-72
2023/11/10 06:43:51;;;;;;;26.85;24.95;;;;;;;1.63;100.00;101479.81;4980399;28;20054;-73
2023/11/10 06:46:22;;;;;;;22.85;21.35;;;;;;;2.78;100.00;101482.97;4977775;28;20045;-72
2023/11/10 06:48:50;;;;;;;37.72;35.08;;;;;;;3.94;100.00;101491.72;4977024;28;20059;-72
2023/11/10 06:51:17;;;;;;;28.65;26.67;;;;;;;4.51;100.00;101477.47;4976465;28;20054;-75
2023/11/10 06:53:44;;;;;;;41.40;35.30;;;;;;;4.96;100.00;101475.78;4972195;28;20050;-75
2023/11/10 06:56:11;;;;;;;33.58;30.67;;;;;;;4.93;100.00;101466.41;4974031;28;20046;-75
2023/11/10 06:58:39;;;;;;;28.67;26.33;;;;;;;4.82;100.00;101464.81;4973110;28;20047;-74
2023/11/10 07:01:10;;;;;;;33.95;31.17;;;;;;;5.01;100.00;101471.72;4965421;28;20134;-75
2023/11/10 07:03:37;;;;;;;31.13;28.65;;;;;;;4.57;100.00;101471.63;4956748;28;20060;-75
2023/11/10 07:06:04;;;;;;;31.58;28.75;;;;;;;4.99;100.00;101452.63;5001008;28;20487;-75
2023/11/10 07:08:32;;;;;;;30.05;27.60;;;;;;;5.14;100.00;101454.69;4966997;28;20057;-75
2023/11/10 07:11:02;;;;;;;27.58;25.52;;;;;;;5.33;100.00;101461.63;4996631;28;20050;-75
2023/11/10 07:13:29;;;;;;;30.02;27.75;;;;;;;5.51;100.00;101462.41;4985175;28;20137;-75
2023/11/10 07:15:57;;;;;;;31.67;29.00;;;;;;;5.54;100.00;101461.25;4990877;28;20439;-75
2023/11/10 07:18:26;;;;;;;27.27;25.48;;;;;;;5.50;100.00;101458.09;4990219;28;20522;-75
2023/11/10 07:20:54;;;;;;;28.52;26.27;;;;;;;5.51;100.00;101446.59;4987384;28;20054;-75
2023/11/10 07:23:21;;;;;;;26.70;24.58;;;;;;;5.46;100.00;101443.59;4990536;28;20081;-75
2023/11/10 07:25:48;;;;;;;30.70;28.17;;;;;;;5.39;100.00;101439.94;4985676;28;20053;-75
2023/11/10 07:28:15;;;;;;;28.35;26.40;;;;;;;4.30;100.00;101440.91;4986239;28;20599;-75
2023/11/10 07:30:43;;;;;;;26.27;24.23;;;;;;;4.93;100.00;101434.81;4990050;28;20061;-74
2023/11/10 07:33:10;;;;;;;25.20;23.52;;;;;;;5.62;100.00;101434.94;4988609;28;20535;-76
2023/11/10 07:35:39;;;;;;;28.02;25.92;;;;;;;5.66;100.00;101431.03;4988363;28;20446;-75
2023/11/10 07:38:07;;;;;;;23.95;22.35;;;;;;;5.81;100.00;101428.63;4990630;28;20113;-75
2023/11/10 07:40:34;;;;;;;26.00;24.25;;;;;;;7.17;100.00;101422.22;4988271;28;20057;-75
2023/11/10 07:43:04;;;;;;;25.05;23.10;;;;;;;7.67;100.00;101421.13;4990638;28;20116;-75
2023/11/10 07:45:33;;;;;;;23.90;22.50;;;;;;;8.34;100.00;101396.84;4987740;28;20050;-75
2023/11/10 07:48:00;;;;;;;26.30;24.40;;;;;;;9.66;100.00;101400.09;4988197;28;20152;-75
2023/11/10 07:50:27;;;;;;;29.15;27.05;;;;;;;10.84;100.00;101393.69;4991101;28;20050;-75
2023/11/10 07:52:56;;;;;;;32.40;30.20;;;;;;;11.63;100.00;101398.75;4988975;28;20533;-75
2023/11/10 07:55:24;;;;;;;33.35;30.85;;;;;;;12.12;100.00;101392.44;4985156;28;20050;-75
2023/11/10 07:57:50;;;;;;;36.22;32.88;;;;;;;12.34;100.00;101382.50;4988043;28;20053;-74
2023/11/10 08:00:18;;;;;;;29.60;27.50;;;;;;;12.98;100.00;101380.28;4989878;28;20065;-75
2023/11/10 08:02:51;;;;;;;27.38;25.73;;;;;;;13.46;100.00;101364.91;4990576;28;20532;-74
2023/11/10 08:05:19;;;;;;;25.27;23.48;;;;;;;14.30;100.00;101363.09;4987509;28;20050;-75
2023/11/10 08:07:46;;;;;;;24.27;22.58;;;;;;;14.33;100.00;101360.00;4989979;28;20066;-75
2023/11/10 08:10:16;;;;;;;23.90;22.15;;;;;;;14.71;100.00;101364.50;4992460;28;20108;-75
2023/11/10 08:12:43;;;;;;;25.38;23.77;;;;;;;15.48;100.00;101366.88;4998511;28;20521;-75
2023/11/10 08:15:11;;;;;;;25.80;23.95;;;;;;;16.09;100.00;101363.28;4997134;28;20411;-75
2023/11/10 08:17:38;;;;;;;26.60;24.48;;;;;;;16.09;100.00;101360.59;4988748;28;20050;-75
2023/11/10 08:20:06;;;;;;;23.13;21.52;;;;;;;16.18;100.00;101353.88;4988938;28;20060;-75
2023/11/10 08:22:33;;;;;;;19.38;18.08;;;;;;;17.08;100.00;101354.78;4995772;28;20160;-75
2023/11/10 08:25:03;;;;;;;19.17;17.77;;;;;;;16.35;100.00;101353.25;4992679;28;20138;-75
2023/11/10 08:27:32;;;;;;;22.85;21.20;;;;;;;15.69;100.00;101354.94;4997934;28;20656;-75
2023/11/10 08:30:00;;;;;;;23.83;22.13;;;;;;;15.27;100.00;101352.88;4991349;28;20046;-75
2023/11/10 08:32:27;;;;;;;23.35;21.63;;;;;;;16.11;100.00;101342.44;4995139;28;20093;-75
2023/11/10 08:34:57;;;;;;;23.35;21.65;;;;;;;17.88;100.00;101342.50;4990786;28;20154;-75
2023/11/10 08:37:26;;;;;;;25.95;24.15;;;;;;;17.67;100.00;101336.72;4989114;28;20412;-75
2023/11/10 08:39:53;;;;;;;22.90;21.20;;;;;;;17.70;100.00;101335.41;4991794;28;20046;-75
2023/11/10 08:42:21;;;;;;;23.30;21.50;;;;;;;18.65;100.00;101332.06;4992346;28;20150;-75
2023/11/10 08:44:49;;;;;;;23.63;21.92;;;;;;;17.58;100.00;101338.16;4992936;28;20054;-75
2023/11/10 08:47:16;;;;;;;25.95;24.15;;;;;;;18.05;100.00;101320.00;4988734;28;20042;-75
2023/11/10 08:49:46;;;;;;;23.30;21.60;;;;;;;17.89;100.00;101322.66;4992487;28;20629;-75
2023/11/10 08:52:14;;;;;;;22.65;21.05;;;;;;;17.83;100.00;101319.88;4993040;28;20585;-75
2023/11/10 08:54:41;;;;;;;23.80;22.10;;;;;;;18.18;100.00;101312.69;4997764;28;20050;-75
2023/11/10 08:57:08;;;;;;;28.23;25.40;;;;;;;18.51;100.00;101307.34;4989305;28;20057;-76
2023/11/10 08:59:35;;;;;;;24.40;22.77;;;;;;;19.35;100.00;101300.25;4995854;28;20053;-75
2023/11/10 09:02:03;;;;;;;22.85;21.15;;;;;;;18.46;100.00;101304.59;4991219;28;20519;-75
2023/11/10 09:04:30;;;;;;;24.88;23.05;;;;;;;17.99;100.00;101306.72;4985240;28;20473;-76
2023/11/10 09:06:57;;;;;;;26.33;24.52;;;;;;;18.28;100.00;101291.38;4988362;28;20046;-76
2023/11/10 09:09:24;;;;;;;22.98;21.17;;;;;;;18.93;100.00;101295.38;4989136;28;20049;-75
2023/11/10 09:11:51;;;;;;;23.60;21.90;;;;;;;19.49;100.00;101281.84;4991472;28;20050;-75
2023/11/10 09:14:18;;;;;;;22.88;21.38;;;;;;;18.65;100.00;101288.22;4990516;28;20046;-75
2023/11/10 09:16:45;;;;;;;22.75;21.30;;;;;;;18.97;100.00;101286.56;4989426;28;20164;-75
2023/11/10 09:19:13;;;;;;;25.55;23.75;;;;;;;19.21;100.00;101275.56;4993088;28;20446;-75
2023/11/10 09:21:40;;;;;;;25.60;23.70;;;;;;;19.96;100.00;101281.28;4994397;28;20591;-75
2023/11/10 09:24:08;;;;;;;29.50;27.40;;;;;;;19.39;100.00;101269.03;4989360;28;20051;-75
2023/11/10 09:26:35;;;;;;;23.75;22.13;;;;;;;19.29;99.15;101267.06;4990551;28;20060;-76
2023/11/10 09:29:03;;;;;;;23.45;21.75;;;;;;;19.27;99.25;101268.34;4993092;28;20092;-75
2023/11/10 09:31:30;;;;;;;23.42;21.83;;;;;;;18.65;100.00;101269.38;4997321;28;20042;-75
2023/11/10 09:33:57;;;;;;;20.58;19.17;;;;;;;19.23;97.04;101262.66;4994905;28;20435;-75
2023/11/10 09:36:26;;;;;;;22.40;20.90;;;;;;;19.77;94.76;101261.97;4997874;28;20427;-75
2023/11/10 09:38:56;;;;;;;23.17;21.67;;;;;;;19.32;100.00;101254.97;4994931;28;20050;-75
2023/11/10 09:41:24;;;;;;;21.77;20.38;;;;;;;20.23;85.83;101254.28;4991045;28;20553;-75
2023/11/10 09:43:53;;;;;;;22.33;20.83;;;;;;;20.10;87.77;101256.34;4994643;28;20042;-76
2023/11/10 09:46:22;;;;;;;26.00;24.40;;;;;;;20.94;83.59;101246.72;4992404;28;20103;-75
2023/11/10 09:48:57;;;;;;;23.13;21.63;;;;;;;19.95;86.08;101250.00;4997859;28;20054;-76
2023/11/10 09:51:27;;;;;;;21.55;20.05;;;;;;;20.39;82.59;101239.03;4998343;28;20057;-76
2023/11/10 09:53:55;;;;;;;24.25;22.55;;;;;;;19.59;90.70;101250.44;4992847;28;20162;-75
2023/11/10 09:56:22;;;;;;;24.48;22.77;;;;;;;19.75;92.69;101248.72;4996487;28;20401;-76
2023/11/10 09:58:51;;;;;;;23.00;21.30;;;;;;;19.88;94.99;101234.06;4991017;28;20046;-76
2023/11/10 10:01:19;;;;;;;21.92;20.23;;;;;;;19.80;93.04;101239.91;4995658;28;20401;-75
2023/11/10 10:03:46;;;;;;;21.00;19.40;;;;;;;18.91;98.74;101230.22;4990977;28;20137;-75
2023/11/10 10:06:17;;;;;;;19.92;18.42;;;;;;;18.33;100.00;101229.59;4995251;28;20053;-76
2023/11/10 10:08:46;;;;;;;22.15;20.65;;;;;;;19.57;100.00;101222.91;4991664;28;20509;-76
2023/11/10 10:11:13;;;;;;;22.77;21.27;;;;;;;20.02;98.25;101202.09;4993994;28;20487;-76
2023/11/10 10:13:41;;;;;;;20.88;19.38;;;;;;;20.25;88.79;101193.66;4989957;28;20053;-76
2023/11/10 10:16:12;;;;;;;22.42;20.83;;;;;;;19.90;91.22;101196.84;4996479;28;20065;-75
2023/11/10 10:18:39;;;;;;;24.67;22.88;;;;;;;19.78;90.52;101202.41;4986799;28;20045;-76
2023/11/10 10:21:06;;;;;;;23.90;22.10;;;;;;;20.30;92.32;101203.63;4990057;28;20050;-75
2023/11/10 10:23:35;;;;;;;24.40;22.80;;;;;;;21.40;80.34;101200.19;4992712;28;20097;-75
2023/11/10 10:26:07;;;;;;;24.50;22.80;;;;;;;21.34;75.93;101202.03;4991119;28;21243;-76
2023/11/10 10:28:34;;;;;;;20.88;19.17;;;;;;;20.38;83.22;101195.06;4994710;28;20412;-75
2023/11/10 10:31:00;;;;;;;20.30;18.60;;;;;;;20.41;81.46;101185.66;4989398;28;20121;-75
2023/11/10 10:33:28;;;;;;;19.98;18.48;;;;;;;19.61;85.03;101188.22;4990200;28;20496;-76
2023/11/10 10:35:55;;;;;;;22.77;21.08;;;;;;;20.01;82.35;101178.91;4989934;28;20546;-75
2023/11/10 10:38:24;;;;;;;22.25;20.55;;;;;;;19.68;80.22;101170.78;4990903;28;20133;-75
2023/11/10 10:40:56;;;;;;;21.75;20.05;;;;;;;19.77;81.53;101170.34;4989028;28;20427;-75
2023/11/10 10:43:25;;;;;;;22.63;20.83;;;;;;;19.45;79.09;101163.00;4987680;28;20051;-76
2023/11/10 10:45:53;;;;;;;24.05;22.15;;;;;;;20.43;68.60;101168.13;4991001;28;20076;-76
2023/11/10 10:48:22;;;;;;;22.30;20.70;;;;;;;20.26;68.76;101162.09;4988965;28;20534;-75
2023/11/10 10:50:56;;;;;;;24.13;22.17;;;;;;;20.70;68.55;101148.34;4990811;28;20430;-75
2023/11/10 10:53:24;;;;;;;29.15;27.25;;;;;;;21.27;64.01;101148.28;4988174;28;20058;-75
2023/11/10 10:55:53;;;;;;;25.27;23.50;;;;;;;21.31;63.82;101145.03;4989495;28;20057;-75
2023/11/10 10:58:22;;;;;;;25.15;23.38;;;;;;;21.18;66.40;101130.13;4992189;28;20047;-75
2023/11/10 11:00:50;;;;;;;23.52;21.83;;;;;;;20.09;67.64;101136.09;4985650;28;20141;-75
2023/11/10 11:03:40;;;;;;;24.50;22.80;;;;;;;21.14;63.87;101129.84;4989782;28;20050;-76
2023/11/10 11:06:33;;;;;;;23.98;22.27;;;;;;;19.10;75.77;101131.13;4990180;28;20582;-75